createdAt,value
2019-01-21T00:28:55.735Z,1020.68
2019-01-21T00:28:56.314Z,1020.67
2019-01-21T00:28:56.908Z,1020.68
2019-01-21T00:28:57.509Z,1020.66
2019-01-21T00:28:58.109Z,1020.62
2019-01-21T00:28:58.707Z,1020.64
2019-01-21T00:28:59.306Z,1020.64
2019-01-21T00:28:59.907Z,1020.63
2019-01-21T00:29:54.412Z,1020.64
2019-01-21T00:29:54.984Z,1020.68
2019-01-21T00:29:55.584Z,1020.67
2019-01-21T00:29:56.184Z,1020.71
2019-01-21T00:29:56.784Z,1020.69
2019-01-21T00:29:57.383Z,1020.68
2019-01-21T00:29:57.983Z,1020.64
2019-01-21T00:29:58.582Z,1020.67
2019-01-21T00:30:53.088Z,1020.70
2019-01-21T00:30:53.663Z,1020.65
2019-01-21T00:30:54.262Z,1020.66
2019-01-21T00:30:54.863Z,1020.66
2019-01-21T00:30:55.460Z,1020.62
2019-01-21T00:30:56.065Z,1020.62
2019-01-21T00:30:56.661Z,1020.66
2019-01-21T00:30:57.262Z,1020.62
2019-01-21T00:31:50.742Z,1020.63
2019-01-21T00:31:51.315Z,1020.68
2019-01-21T00:31:51.915Z,1020.65
2019-01-21T00:31:52.514Z,1020.63
2019-01-21T00:31:53.114Z,1020.65
2019-01-21T00:31:53.714Z,1020.63
2019-01-21T00:31:54.315Z,1020.64
2019-01-21T00:31:54.917Z,1020.64
2019-01-21T00:32:49.420Z,1020.66
2019-01-21T00:32:49.993Z,1020.65
2019-01-21T00:32:50.591Z,1020.61
2019-01-21T00:32:51.191Z,1020.59
2019-01-21T00:32:51.790Z,1020.62
2019-01-21T00:32:52.389Z,1020.65
2019-01-21T00:32:52.987Z,1020.60
2019-01-21T00:32:53.588Z,1020.65
2019-01-21T00:33:47.071Z,1020.62
2019-01-21T00:33:47.644Z,1020.67
2019-01-21T00:33:48.243Z,1020.66
2019-01-21T00:33:48.843Z,1020.62
2019-01-21T00:33:49.442Z,1020.64
2019-01-21T00:33:50.043Z,1020.64
2019-01-21T00:33:50.642Z,1020.62
2019-01-21T00:33:51.241Z,1020.63
2019-01-21T00:34:45.746Z,1020.62
2019-01-21T00:34:46.319Z,1020.60
2019-01-21T00:34:46.918Z,1020.58
2019-01-21T00:34:47.518Z,1020.58
2019-01-21T00:34:48.118Z,1020.60
2019-01-21T00:34:48.718Z,1020.62
2019-01-21T00:34:49.316Z,1020.59
2019-01-21T00:34:49.919Z,1020.59
2019-01-21T00:35:44.421Z,1020.62
2019-01-21T00:35:44.994Z,1020.60
2019-01-21T00:35:45.596Z,1020.62
2019-01-21T00:35:46.194Z,1020.55
2019-01-21T00:35:46.795Z,1020.61
2019-01-21T00:35:47.394Z,1020.61
2019-01-21T00:35:47.995Z,1020.58
2019-01-21T00:35:48.593Z,1020.61
2019-01-21T00:36:42.074Z,1020.64
2019-01-21T00:36:42.651Z,1020.59
2019-01-21T00:36:43.247Z,1020.58
2019-01-21T00:36:43.846Z,1020.58
2019-01-21T00:36:44.446Z,1020.58
2019-01-21T00:36:45.046Z,1020.59
2019-01-21T00:36:45.646Z,1020.60
2019-01-21T00:36:46.244Z,1020.58
2019-01-21T00:37:40.749Z,1020.59
2019-01-21T00:37:41.323Z,1020.62
2019-01-21T00:37:41.926Z,1020.61
2019-01-21T00:37:42.522Z,1020.58
2019-01-21T00:37:43.122Z,1020.62
2019-01-21T00:37:43.732Z,1020.63
2019-01-21T00:37:44.320Z,1020.64
2019-01-21T00:37:44.919Z,1020.67
2019-01-21T00:38:38.402Z,1020.62
2019-01-21T00:38:38.978Z,1020.63
2019-01-21T00:38:39.574Z,1020.63
2019-01-21T00:38:40.175Z,1020.62
2019-01-21T00:38:40.776Z,1020.61
2019-01-21T00:38:41.376Z,1020.60
2019-01-21T00:38:41.974Z,1020.60
2019-01-21T00:38:42.573Z,1020.63
2019-01-21T00:39:37.269Z,1020.56
2019-01-21T00:39:37.651Z,1020.58
2019-01-21T00:39:38.250Z,1020.60
2019-01-21T00:39:39.700Z,1020.60
2019-01-21T00:39:39.752Z,1020.62
2019-01-21T00:39:40.050Z,1020.63
2019-01-21T00:39:40.649Z,1020.60
2019-01-21T00:39:41.249Z,1020.61
2019-01-21T00:40:34.731Z,1020.60
2019-01-21T00:40:35.306Z,1020.61
2019-01-21T00:40:35.903Z,1020.61
2019-01-21T00:40:36.503Z,1020.59
2019-01-21T00:40:37.102Z,1020.63
2019-01-21T00:40:37.701Z,1020.62
2019-01-21T00:40:38.303Z,1020.59
2019-01-21T00:40:38.901Z,1020.59
2019-01-21T00:41:33.405Z,1020.61
2019-01-21T00:41:33.977Z,1020.62
2019-01-21T00:41:34.581Z,1020.59
2019-01-21T00:41:35.177Z,1020.59
2019-01-21T00:41:35.777Z,1020.61
2019-01-21T00:41:36.377Z,1020.56
2019-01-21T00:41:36.977Z,1020.61
2019-01-21T00:41:37.575Z,1020.61
2019-01-21T00:42:31.062Z,1020.55
2019-01-21T00:42:31.630Z,1020.62
2019-01-21T00:42:32.230Z,1020.56
2019-01-21T00:42:32.831Z,1020.54
2019-01-21T00:42:33.430Z,1020.57
2019-01-21T00:42:34.030Z,1020.60
2019-01-21T00:42:34.629Z,1020.57
2019-01-21T00:42:35.228Z,1020.58
2019-01-21T00:43:29.732Z,1020.60
2019-01-21T00:43:30.307Z,1020.60
2019-01-21T00:43:30.909Z,1020.63
2019-01-21T00:43:31.505Z,1020.58
2019-01-21T00:43:32.105Z,1020.59
2019-01-21T00:43:32.706Z,1020.59
2019-01-21T00:43:33.304Z,1020.60
2019-01-21T00:43:33.905Z,1020.59
2019-01-21T00:44:27.387Z,1020.55
2019-01-21T00:44:27.959Z,1020.55
2019-01-21T00:44:28.559Z,1020.58
2019-01-21T00:44:29.158Z,1020.54
2019-01-21T00:44:29.758Z,1020.57
2019-01-21T00:44:30.360Z,1020.57
2019-01-21T00:44:30.958Z,1020.58
2019-01-21T00:44:31.556Z,1020.54
2019-01-21T00:45:26.059Z,1020.60
2019-01-21T00:45:26.633Z,1020.59
2019-01-21T00:45:27.233Z,1020.60
2019-01-21T00:45:27.832Z,1020.57
2019-01-21T00:45:28.433Z,1020.54
2019-01-21T00:45:29.031Z,1020.57
2019-01-21T00:45:29.631Z,1020.59
2019-01-21T00:45:30.233Z,1020.61
2019-01-21T00:46:24.737Z,1020.56
2019-01-21T00:46:25.309Z,1020.61
2019-01-21T00:46:25.909Z,1020.58
2019-01-21T00:46:26.508Z,1020.60
2019-01-21T00:46:27.108Z,1020.61
2019-01-21T00:46:27.709Z,1020.60
2019-01-21T00:46:28.310Z,1020.62
2019-01-21T00:46:28.907Z,1020.61
2019-01-21T00:47:29.726Z,1020.60
2019-01-21T00:47:29.749Z,1020.60
2019-01-21T00:47:29.763Z,1020.64
2019-01-21T00:47:29.793Z,1020.63
2019-01-21T00:47:29.875Z,1020.64
2019-01-21T00:47:29.968Z,1020.60
2019-01-21T00:47:30.101Z,1020.59
2019-01-21T00:47:30.151Z,1020.61
2019-01-21T00:48:22.088Z,1020.64
2019-01-21T00:48:22.659Z,1020.65
2019-01-21T00:48:23.259Z,1020.64
2019-01-21T00:48:23.860Z,1020.69
2019-01-21T00:48:24.459Z,1020.66
2019-01-21T00:48:25.062Z,1020.65
2019-01-21T00:48:25.659Z,1020.63
2019-01-21T00:48:26.258Z,1020.63
2019-01-21T00:49:20.763Z,1020.68
2019-01-21T00:49:21.335Z,1020.68
2019-01-21T00:49:21.938Z,1020.65
2019-01-21T00:49:22.536Z,1020.68
2019-01-21T00:49:23.137Z,1020.67
2019-01-21T00:49:23.735Z,1020.68
2019-01-21T00:49:24.339Z,1020.69
2019-01-21T00:49:24.935Z,1020.67
2019-01-21T00:50:18.416Z,1020.71
2019-01-21T00:50:18.988Z,1020.69
2019-01-21T00:50:19.588Z,1020.74
2019-01-21T00:50:20.188Z,1020.72
2019-01-21T00:50:20.787Z,1020.68
2019-01-21T00:50:21.388Z,1020.68
2019-01-21T00:50:21.988Z,1020.68
2019-01-21T00:50:22.590Z,1020.65
2019-01-21T00:51:16.068Z,1020.67
2019-01-21T00:51:16.640Z,1020.70
2019-01-21T00:51:17.239Z,1020.71
2019-01-21T00:51:17.839Z,1020.70
2019-01-21T00:51:18.439Z,1020.73
2019-01-21T00:51:19.040Z,1020.72
2019-01-21T00:51:19.638Z,1020.72
2019-01-21T00:51:20.246Z,1020.72
2019-01-21T00:52:13.719Z,1020.71
2019-01-21T00:52:14.291Z,1020.73
2019-01-21T00:52:14.891Z,1020.74
2019-01-21T00:52:15.490Z,1020.74
2019-01-21T00:52:16.095Z,1020.74
2019-01-21T00:52:16.691Z,1020.74
2019-01-21T00:52:17.291Z,1020.75
2019-01-21T00:52:17.890Z,1020.75
2019-01-21T00:53:12.393Z,1020.71
2019-01-21T00:53:12.967Z,1020.71
2019-01-21T00:53:13.566Z,1020.73
2019-01-21T00:53:14.166Z,1020.75
2019-01-21T00:53:14.766Z,1020.75
2019-01-21T00:53:15.365Z,1020.74
2019-01-21T00:53:15.966Z,1020.76
2019-01-21T00:53:16.566Z,1020.74
2019-01-21T00:54:10.047Z,1020.73
2019-01-21T00:54:10.625Z,1020.71
2019-01-21T00:54:11.219Z,1020.72
2019-01-21T00:54:11.817Z,1020.73
2019-01-21T00:54:12.417Z,1020.70
2019-01-21T00:54:13.017Z,1020.73
2019-01-21T00:54:13.618Z,1020.77
2019-01-21T00:54:14.216Z,1020.75
2019-01-21T00:55:07.698Z,1020.73
2019-01-21T00:55:08.272Z,1020.73
2019-01-21T00:55:08.870Z,1020.70
2019-01-21T00:55:09.472Z,1020.75
2019-01-21T00:55:10.074Z,1020.68
2019-01-21T00:55:10.672Z,1020.72
2019-01-21T00:55:11.269Z,1020.74
2019-01-21T00:55:11.871Z,1020.73
2019-01-21T00:56:05.349Z,1020.73
2019-01-21T00:56:05.923Z,1020.67
2019-01-21T00:56:06.523Z,1020.68
2019-01-21T00:56:07.123Z,1020.67
2019-01-21T00:56:07.723Z,1020.68
2019-01-21T00:56:08.321Z,1020.73
2019-01-21T00:56:08.922Z,1020.72
2019-01-21T00:56:09.523Z,1020.71
2019-01-21T00:57:04.028Z,1020.73
2019-01-21T00:57:04.598Z,1020.75
2019-01-21T00:57:05.198Z,1020.72
2019-01-21T00:57:05.797Z,1020.70
2019-01-21T00:57:06.397Z,1020.68
2019-01-21T00:57:06.996Z,1020.73
2019-01-21T00:57:07.596Z,1020.73
2019-01-21T00:57:08.195Z,1020.74
2019-01-21T00:58:02.700Z,1020.70
2019-01-21T00:58:03.275Z,1020.75
2019-01-21T00:58:03.873Z,1020.73
2019-01-21T00:58:04.475Z,1020.71
2019-01-21T00:58:05.073Z,1020.70
2019-01-21T00:58:05.674Z,1020.72
2019-01-21T00:58:06.274Z,1020.74
2019-01-21T00:58:06.873Z,1020.70
2019-01-21T00:59:00.353Z,1020.74
2019-01-21T00:59:00.926Z,1020.72
2019-01-21T00:59:01.527Z,1020.75
2019-01-21T00:59:02.128Z,1020.71
2019-01-21T00:59:02.725Z,1020.69
2019-01-21T00:59:03.326Z,1020.73
2019-01-21T00:59:03.925Z,1020.72
2019-01-21T00:59:04.524Z,1020.74
2019-01-21T00:59:59.035Z,1020.78
2019-01-21T00:59:59.600Z,1020.74
2019-01-21T01:00:00.246Z,1020.76
2019-01-21T01:00:00.799Z,1020.76
2019-01-21T01:00:01.403Z,1020.73
2019-01-21T01:00:01.999Z,1020.75
2019-01-21T01:00:02.600Z,1020.73
2019-01-21T01:00:03.198Z,1020.73
2019-01-21T01:00:57.704Z,1020.74
2019-01-21T01:00:58.276Z,1020.74
2019-01-21T01:00:58.879Z,1020.73
2019-01-21T01:00:59.477Z,1020.75
2019-01-21T01:01:00.076Z,1020.78
2019-01-21T01:01:00.679Z,1020.75
2019-01-21T01:01:01.277Z,1020.74
2019-01-21T01:01:01.876Z,1020.74
2019-01-21T01:01:56.380Z,1020.72
2019-01-21T01:01:56.954Z,1020.79
2019-01-21T01:01:57.552Z,1020.79
2019-01-21T01:01:58.156Z,1020.80
2019-01-21T01:01:58.751Z,1020.77
2019-01-21T01:01:59.352Z,1020.75
2019-01-21T01:01:59.951Z,1020.73
2019-01-21T01:02:00.556Z,1020.74
2019-01-21T01:02:54.031Z,1020.79
2019-01-21T01:02:54.605Z,1020.78
2019-01-21T01:02:55.205Z,1020.77
2019-01-21T01:02:55.804Z,1020.79
2019-01-21T01:02:56.405Z,1020.77
2019-01-21T01:02:57.009Z,1020.79
2019-01-21T01:02:57.608Z,1020.79
2019-01-21T01:02:58.204Z,1020.78
2019-01-21T01:03:51.683Z,1020.74
2019-01-21T01:03:52.257Z,1020.77
2019-01-21T01:03:52.856Z,1020.80
2019-01-21T01:03:53.456Z,1020.77
2019-01-21T01:03:54.055Z,1020.80
2019-01-21T01:03:54.655Z,1020.78
2019-01-21T01:03:55.255Z,1020.82
2019-01-21T01:03:55.855Z,1020.79
2019-01-21T01:04:49.334Z,1020.78
2019-01-21T01:04:49.908Z,1020.79
2019-01-21T01:04:50.510Z,1020.78
2019-01-21T01:04:51.108Z,1020.77
2019-01-21T01:04:51.707Z,1020.79
2019-01-21T01:04:52.308Z,1020.82
2019-01-21T01:04:52.908Z,1020.80
2019-01-21T01:04:53.506Z,1020.80
2019-01-21T01:05:48.009Z,1020.81
2019-01-21T01:05:48.584Z,1020.78
2019-01-21T01:05:49.183Z,1020.76
2019-01-21T01:05:49.782Z,1020.77
2019-01-21T01:05:50.390Z,1020.78
2019-01-21T01:05:50.983Z,1020.78
2019-01-21T01:05:51.581Z,1020.78
2019-01-21T01:05:52.182Z,1020.79
2019-01-21T01:06:46.686Z,1020.80
2019-01-21T01:06:47.258Z,1020.80
2019-01-21T01:06:47.862Z,1020.79
2019-01-21T01:06:48.458Z,1020.81
2019-01-21T01:06:49.058Z,1020.78
2019-01-21T01:06:49.658Z,1020.74
2019-01-21T01:06:50.258Z,1020.79
2019-01-21T01:06:50.861Z,1020.82
2019-01-21T01:07:44.337Z,1020.76
2019-01-21T01:07:44.912Z,1020.82
2019-01-21T01:07:45.511Z,1020.83
2019-01-21T01:07:46.110Z,1020.83
2019-01-21T01:07:46.710Z,1020.84
2019-01-21T01:07:47.310Z,1020.77
2019-01-21T01:07:47.910Z,1020.81
2019-01-21T01:07:48.511Z,1020.82
2019-01-21T01:08:43.011Z,1020.82
2019-01-21T01:08:43.586Z,1020.84
2019-01-21T01:08:44.187Z,1020.83
2019-01-21T01:08:44.786Z,1020.84
2019-01-21T01:08:45.387Z,1020.83
2019-01-21T01:08:45.986Z,1020.76
2019-01-21T01:08:46.585Z,1020.82
2019-01-21T01:08:47.185Z,1020.78
2019-01-21T01:09:41.690Z,1020.77
2019-01-21T01:09:42.263Z,1020.82
2019-01-21T01:09:42.865Z,1020.80
2019-01-21T01:09:43.462Z,1020.82
2019-01-21T01:09:44.061Z,1020.80
2019-01-21T01:09:44.662Z,1020.84
2019-01-21T01:09:45.261Z,1020.84
2019-01-21T01:09:45.860Z,1020.84
2019-01-21T01:10:39.341Z,1020.82
2019-01-21T01:10:39.914Z,1020.84
2019-01-21T01:10:40.513Z,1020.83
2019-01-21T01:10:41.113Z,1020.84
2019-01-21T01:10:41.714Z,1020.80
2019-01-21T01:10:42.313Z,1020.79
2019-01-21T01:10:42.915Z,1020.83
2019-01-21T01:10:43.514Z,1020.83
2019-01-21T01:11:38.017Z,1020.84
2019-01-21T01:11:38.590Z,1020.83
2019-01-21T01:11:39.189Z,1020.79
2019-01-21T01:11:39.803Z,1020.83
2019-01-21T01:11:40.388Z,1020.83
2019-01-21T01:11:40.988Z,1020.82
2019-01-21T01:11:41.589Z,1020.88
2019-01-21T01:11:42.187Z,1020.79
2019-01-21T01:12:35.669Z,1020.81
2019-01-21T01:12:36.242Z,1020.79
2019-01-21T01:12:36.843Z,1020.81
2019-01-21T01:12:37.442Z,1020.85
2019-01-21T01:12:38.043Z,1020.88
2019-01-21T01:12:38.644Z,1020.84
2019-01-21T01:12:39.244Z,1020.86
2019-01-21T01:12:39.839Z,1020.84
2019-01-21T01:13:34.344Z,1020.80
2019-01-21T01:13:34.917Z,1020.82
2019-01-21T01:13:35.516Z,1020.79
2019-01-21T01:13:36.117Z,1020.81
2019-01-21T01:13:36.717Z,1020.80
2019-01-21T01:13:37.316Z,1020.82
2019-01-21T01:13:37.918Z,1020.83
2019-01-21T01:13:38.516Z,1020.84
2019-01-21T01:14:33.021Z,1020.83
2019-01-21T01:14:33.593Z,1020.82
2019-01-21T01:14:34.192Z,1020.81
2019-01-21T01:14:34.791Z,1020.82
2019-01-21T01:14:35.392Z,1020.82
2019-01-21T01:14:35.992Z,1020.85
2019-01-21T01:14:36.593Z,1020.83
2019-01-21T01:14:37.190Z,1020.81
2019-01-21T01:15:31.699Z,1020.79
2019-01-21T01:15:32.267Z,1020.82
2019-01-21T01:15:32.866Z,1020.81
2019-01-21T01:15:33.468Z,1020.80
2019-01-21T01:15:34.066Z,1020.83
2019-01-21T01:15:34.666Z,1020.81
2019-01-21T01:15:35.265Z,1020.80
2019-01-21T01:15:35.865Z,1020.82
2019-01-21T01:16:30.371Z,1020.85
2019-01-21T01:16:30.945Z,1020.83
2019-01-21T01:16:31.544Z,1020.81
2019-01-21T01:16:32.143Z,1020.81
2019-01-21T01:16:32.743Z,1020.82
2019-01-21T01:16:33.346Z,1020.80
2019-01-21T01:16:33.945Z,1020.82
2019-01-21T01:16:34.543Z,1020.82
2019-01-21T01:17:29.046Z,1020.82
2019-01-21T01:17:29.622Z,1020.81
2019-01-21T01:17:33.382Z,1020.84
2019-01-21T01:17:33.398Z,1020.83
2019-01-21T01:17:37.088Z,1020.81
2019-01-21T01:17:37.129Z,1020.81
2019-01-21T01:17:37.159Z,1020.81
2019-01-21T01:17:37.161Z,1020.80
2019-01-21T01:18:27.723Z,1020.84
2019-01-21T01:18:28.296Z,1020.82
2019-01-21T01:18:28.896Z,1020.85
2019-01-21T01:18:29.495Z,1020.79
2019-01-21T01:18:30.095Z,1020.81
2019-01-21T01:18:30.698Z,1020.84
2019-01-21T01:18:31.295Z,1020.79
2019-01-21T01:18:31.894Z,1020.83
2019-01-21T01:19:25.376Z,1020.85
2019-01-21T01:19:25.948Z,1020.87
2019-01-21T01:19:26.547Z,1020.81
2019-01-21T01:19:27.148Z,1020.80
2019-01-21T01:19:27.748Z,1020.76
2019-01-21T01:19:28.347Z,1020.75
2019-01-21T01:19:28.946Z,1020.79
2019-01-21T01:19:29.548Z,1020.84
2019-01-21T01:20:24.051Z,1020.86
2019-01-21T01:20:24.625Z,1020.82
2019-01-21T01:20:25.223Z,1020.83
2019-01-21T01:20:25.824Z,1020.82
2019-01-21T01:20:26.425Z,1020.84
2019-01-21T01:20:27.022Z,1020.84
2019-01-21T01:20:27.625Z,1020.84
2019-01-21T01:20:28.221Z,1020.84
2019-01-21T01:21:21.703Z,1020.87
2019-01-21T01:21:22.275Z,1020.86
2019-01-21T01:21:22.876Z,1020.83
2019-01-21T01:21:23.476Z,1020.84
2019-01-21T01:21:24.075Z,1020.87
2019-01-21T01:21:24.674Z,1020.88
2019-01-21T01:21:25.274Z,1020.82
2019-01-21T01:21:25.873Z,1020.86
2019-01-21T01:22:19.354Z,1020.88
2019-01-21T01:22:19.927Z,1020.87
2019-01-21T01:22:20.526Z,1020.82
2019-01-21T01:22:21.125Z,1020.88
2019-01-21T01:22:21.728Z,1020.87
2019-01-21T01:22:22.326Z,1020.86
2019-01-21T01:22:22.928Z,1020.89
2019-01-21T01:22:23.525Z,1020.89
2019-01-21T01:23:18.032Z,1020.88
2019-01-21T01:23:18.602Z,1020.87
2019-01-21T01:23:19.203Z,1020.90
2019-01-21T01:23:19.802Z,1020.88
2019-01-21T01:23:20.400Z,1020.91
2019-01-21T01:23:21.000Z,1020.87
2019-01-21T01:23:21.601Z,1020.87
2019-01-21T01:23:22.201Z,1020.87
2019-01-21T01:24:16.704Z,1020.91
2019-01-21T01:24:17.277Z,1020.88
2019-01-21T01:24:17.877Z,1020.87
2019-01-21T01:24:18.477Z,1020.90
2019-01-21T01:24:19.077Z,1020.93
2019-01-21T01:24:19.679Z,1020.95
2019-01-21T01:24:20.275Z,1020.93
2019-01-21T01:24:20.875Z,1020.95
2019-01-21T01:25:14.364Z,1020.91
2019-01-21T01:25:14.930Z,1020.89
2019-01-21T01:25:15.528Z,1020.91
2019-01-21T01:25:16.130Z,1020.87
2019-01-21T01:25:16.729Z,1020.85
2019-01-21T01:25:17.328Z,1020.86
2019-01-21T01:25:17.929Z,1020.89
2019-01-21T01:25:18.528Z,1020.90
2019-01-21T01:26:13.031Z,1020.90
2019-01-21T01:26:13.604Z,1020.88
2019-01-21T01:26:14.205Z,1020.86
2019-01-21T01:26:14.803Z,1020.88
2019-01-21T01:26:15.406Z,1020.85
2019-01-21T01:26:16.003Z,1020.90
2019-01-21T01:26:16.606Z,1020.87
2019-01-21T01:26:17.203Z,1020.88
2019-01-21T01:27:11.710Z,1020.92
2019-01-21T01:27:12.280Z,1020.95
2019-01-21T01:27:12.882Z,1020.93
2019-01-21T01:27:13.480Z,1020.93
2019-01-21T01:27:14.080Z,1020.92
2019-01-21T01:27:14.685Z,1020.91
2019-01-21T01:27:15.280Z,1020.90
2019-01-21T01:27:15.878Z,1020.92
2019-01-21T01:28:10.383Z,1020.89
2019-01-21T01:28:10.957Z,1020.90
2019-01-21T01:28:11.557Z,1020.91
2019-01-21T01:28:12.155Z,1020.93
2019-01-21T01:28:12.755Z,1020.93
2019-01-21T01:28:13.355Z,1020.95
2019-01-21T01:28:13.954Z,1020.93
2019-01-21T01:28:14.556Z,1020.92
2019-01-21T01:29:09.060Z,1020.88
2019-01-21T01:29:09.633Z,1020.89
2019-01-21T01:29:10.234Z,1020.94
2019-01-21T01:29:10.832Z,1020.93
2019-01-21T01:29:11.432Z,1020.91
2019-01-21T01:29:12.031Z,1020.94
2019-01-21T01:29:12.632Z,1020.96
2019-01-21T01:29:13.231Z,1020.91
2019-01-21T01:30:06.713Z,1020.91
2019-01-21T01:30:07.284Z,1020.91
2019-01-21T01:30:07.884Z,1020.89
2019-01-21T01:30:08.483Z,1020.90
2019-01-21T01:30:09.083Z,1020.87
2019-01-21T01:30:09.683Z,1020.90
2019-01-21T01:30:10.287Z,1020.86
2019-01-21T01:30:10.885Z,1020.89
2019-01-21T01:31:05.388Z,1020.94
2019-01-21T01:31:05.963Z,1020.95
2019-01-21T01:31:06.559Z,1020.93
2019-01-21T01:31:07.159Z,1020.92
2019-01-21T01:31:07.757Z,1020.92
2019-01-21T01:31:08.359Z,1020.91
2019-01-21T01:31:08.958Z,1020.90
2019-01-21T01:31:09.557Z,1020.91
2019-01-21T01:32:04.063Z,1020.94
2019-01-21T01:32:04.634Z,1020.91
2019-01-21T01:32:05.235Z,1020.91
2019-01-21T01:32:05.838Z,1020.88
2019-01-21T01:32:06.434Z,1020.92
2019-01-21T01:32:07.034Z,1020.90
2019-01-21T01:32:07.637Z,1020.90
2019-01-21T01:32:08.234Z,1020.91
2019-01-21T01:33:02.738Z,1020.89
2019-01-21T01:33:03.310Z,1020.89
2019-01-21T01:33:03.911Z,1020.90
2019-01-21T01:33:04.510Z,1020.90
2019-01-21T01:33:05.111Z,1020.90
2019-01-21T01:33:05.710Z,1020.92
2019-01-21T01:33:06.309Z,1020.93
2019-01-21T01:33:06.909Z,1020.86
2019-01-21T01:34:01.418Z,1020.84
2019-01-21T01:34:01.987Z,1020.81
2019-01-21T01:34:02.588Z,1020.86
2019-01-21T01:34:03.187Z,1020.85
2019-01-21T01:34:03.786Z,1020.86
2019-01-21T01:34:04.385Z,1020.85
2019-01-21T01:34:04.987Z,1020.86
2019-01-21T01:34:05.586Z,1020.87
2019-01-21T01:35:00.261Z,1020.84
2019-01-21T01:35:00.660Z,1020.82
2019-01-21T01:35:01.261Z,1020.84
2019-01-21T01:35:01.862Z,1020.81
2019-01-21T01:35:02.459Z,1020.85
2019-01-21T01:35:03.061Z,1020.88
2019-01-21T01:35:03.662Z,1020.82
2019-01-21T01:35:04.258Z,1020.82
2019-01-21T01:35:57.740Z,1020.82
2019-01-21T01:35:58.315Z,1020.83
2019-01-21T01:35:58.915Z,1020.84
2019-01-21T01:35:59.515Z,1020.85
2019-01-21T01:36:00.115Z,1020.83
2019-01-21T01:36:00.719Z,1020.86
2019-01-21T01:36:01.313Z,1020.86
2019-01-21T01:36:01.913Z,1020.86
2019-01-21T01:36:56.416Z,1020.82
2019-01-21T01:36:56.990Z,1020.83
2019-01-21T01:36:57.590Z,1020.77
2019-01-21T01:36:58.190Z,1020.85
2019-01-21T01:36:58.789Z,1020.83
2019-01-21T01:36:59.390Z,1020.83
2019-01-21T01:36:59.990Z,1020.82
2019-01-21T01:37:00.589Z,1020.82
2019-01-21T01:37:55.093Z,1020.82
2019-01-21T01:37:55.664Z,1020.86
2019-01-21T01:37:56.264Z,1020.86
2019-01-21T01:37:56.864Z,1020.82
2019-01-21T01:37:57.465Z,1020.81
2019-01-21T01:37:58.064Z,1020.87
2019-01-21T01:37:58.663Z,1020.83
2019-01-21T01:37:59.265Z,1020.82
2019-01-21T01:38:53.769Z,1020.80
2019-01-21T01:38:54.340Z,1020.86
2019-01-21T01:38:54.941Z,1020.83
2019-01-21T01:38:55.540Z,1020.83
2019-01-21T01:38:56.139Z,1020.84
2019-01-21T01:38:56.744Z,1020.87
2019-01-21T01:38:57.340Z,1020.83
2019-01-21T01:38:57.940Z,1020.85
2019-01-21T01:39:52.442Z,1020.86
2019-01-21T01:39:53.016Z,1020.91
2019-01-21T01:39:53.616Z,1020.89
2019-01-21T01:39:54.216Z,1020.89
2019-01-21T01:39:54.818Z,1020.84
2019-01-21T01:39:55.416Z,1020.83
2019-01-21T01:39:56.019Z,1020.83
2019-01-21T01:39:56.617Z,1020.81
2019-01-21T01:40:51.123Z,1020.88
2019-01-21T01:40:51.693Z,1020.88
2019-01-21T01:40:52.292Z,1020.88
2019-01-21T01:40:52.891Z,1020.85
2019-01-21T01:40:53.492Z,1020.90
2019-01-21T01:40:54.092Z,1020.90
2019-01-21T01:40:54.692Z,1020.84
2019-01-21T01:40:55.291Z,1020.86
2019-01-21T01:41:49.794Z,1020.85
2019-01-21T01:41:50.369Z,1020.88
2019-01-21T01:41:50.968Z,1020.89
2019-01-21T01:41:51.569Z,1020.85
2019-01-21T01:41:52.168Z,1020.85
2019-01-21T01:41:52.768Z,1020.85
2019-01-21T01:41:53.367Z,1020.86
2019-01-21T01:41:53.971Z,1020.84
2019-01-21T01:42:48.473Z,1020.87
2019-01-21T01:42:49.042Z,1020.86
2019-01-21T01:42:49.644Z,1020.88
2019-01-21T01:42:50.242Z,1020.86
2019-01-21T01:42:50.842Z,1020.88
2019-01-21T01:42:51.445Z,1020.88
2019-01-21T01:42:52.042Z,1020.87
2019-01-21T01:42:52.642Z,1020.87
2019-01-21T01:43:47.146Z,1020.86
2019-01-21T01:43:47.721Z,1020.86
2019-01-21T01:43:48.319Z,1020.83
2019-01-21T01:43:48.982Z,1020.88
2019-01-21T01:43:49.520Z,1020.86
2019-01-21T01:43:50.119Z,1020.87
2019-01-21T01:43:50.719Z,1020.88
2019-01-21T01:43:51.319Z,1020.87
2019-01-21T01:44:45.825Z,1020.85
2019-01-21T01:44:46.395Z,1020.83
2019-01-21T01:44:46.996Z,1020.88
2019-01-21T01:44:47.595Z,1020.82
2019-01-21T01:44:48.194Z,1020.89
2019-01-21T01:44:48.794Z,1020.84
2019-01-21T01:44:49.395Z,1020.85
2019-01-21T01:44:50.000Z,1020.84
2019-01-21T01:45:44.498Z,1020.82
2019-01-21T01:45:45.072Z,1020.82
2019-01-21T01:45:45.673Z,1020.85
2019-01-21T01:45:46.270Z,1020.83
2019-01-21T01:45:46.871Z,1020.84
2019-01-21T01:45:47.470Z,1020.83
2019-01-21T01:45:48.071Z,1020.85
2019-01-21T01:45:48.671Z,1020.83
2019-01-21T01:46:43.174Z,1020.79
2019-01-21T01:46:43.748Z,1020.80
2019-01-21T01:46:44.347Z,1020.82
2019-01-21T01:46:44.947Z,1020.77
2019-01-21T01:46:45.546Z,1020.83
2019-01-21T01:46:46.146Z,1020.80
2019-01-21T01:46:46.746Z,1020.79
2019-01-21T01:46:47.346Z,1020.81
2019-01-21T01:47:44.717Z,1020.81
2019-01-21T01:47:44.780Z,1020.82
2019-01-21T01:47:44.818Z,1020.78
2019-01-21T01:47:44.869Z,1020.79
2019-01-21T01:47:44.875Z,1020.80
2019-01-21T01:47:44.878Z,1020.81
2019-01-21T01:47:44.901Z,1020.80
2019-01-21T01:47:45.176Z,1020.77
2019-01-21T01:48:39.502Z,1020.77
2019-01-21T01:48:40.075Z,1020.81
2019-01-21T01:48:40.675Z,1020.77
2019-01-21T01:48:41.275Z,1020.76
2019-01-21T01:48:41.873Z,1020.76
2019-01-21T01:48:42.473Z,1020.75
2019-01-21T01:48:43.073Z,1020.75
2019-01-21T01:48:43.674Z,1020.74
2019-01-21T01:49:37.154Z,1020.72
2019-01-21T01:49:37.728Z,1020.68
2019-01-21T01:49:38.327Z,1020.75
2019-01-21T01:49:38.927Z,1020.73
2019-01-21T01:49:39.526Z,1020.75
2019-01-21T01:49:40.126Z,1020.71
2019-01-21T01:49:40.726Z,1020.72
2019-01-21T01:49:41.326Z,1020.73
2019-01-21T01:50:34.808Z,1020.74
2019-01-21T01:50:35.379Z,1020.74
2019-01-21T01:50:35.978Z,1020.74
2019-01-21T01:50:36.578Z,1020.72
2019-01-21T01:50:37.181Z,1020.72
2019-01-21T01:50:37.777Z,1020.72
2019-01-21T01:50:38.377Z,1020.68
2019-01-21T01:50:38.977Z,1020.71
2019-01-21T01:51:33.479Z,1020.70
2019-01-21T01:51:34.053Z,1020.68
2019-01-21T01:51:34.653Z,1020.73
2019-01-21T01:51:35.253Z,1020.73
2019-01-21T01:51:35.852Z,1020.73
2019-01-21T01:51:36.452Z,1020.70
2019-01-21T01:51:37.051Z,1020.71
2019-01-21T01:51:37.653Z,1020.71
2019-01-21T01:52:32.157Z,1020.70
2019-01-21T01:52:32.731Z,1020.69
2019-01-21T01:52:33.329Z,1020.70
2019-01-21T01:52:33.931Z,1020.71
2019-01-21T01:52:34.528Z,1020.71
2019-01-21T01:52:35.129Z,1020.71
2019-01-21T01:52:35.728Z,1020.72
2019-01-21T01:52:36.328Z,1020.72
2019-01-21T01:53:29.842Z,1020.72
2019-01-21T01:53:30.382Z,1020.71
2019-01-21T01:53:30.984Z,1020.71
2019-01-21T01:53:31.580Z,1020.66
2019-01-21T01:53:32.182Z,1020.70
2019-01-21T01:53:32.780Z,1020.69
2019-01-21T01:53:33.379Z,1020.66
2019-01-21T01:53:33.979Z,1020.66
2019-01-21T01:54:27.458Z,1020.68
2019-01-21T01:54:28.033Z,1020.68
2019-01-21T01:54:28.632Z,1020.64
2019-01-21T01:54:29.232Z,1020.64
2019-01-21T01:54:29.834Z,1020.69
2019-01-21T01:54:30.432Z,1020.66
2019-01-21T01:54:31.031Z,1020.65
2019-01-21T01:54:31.634Z,1020.68
2019-01-21T01:55:25.114Z,1020.66
2019-01-21T01:55:25.685Z,1020.63
2019-01-21T01:55:26.286Z,1020.67
2019-01-21T01:55:26.886Z,1020.67
2019-01-21T01:55:27.484Z,1020.64
2019-01-21T01:55:28.084Z,1020.62
2019-01-21T01:55:28.684Z,1020.63
2019-01-21T01:55:29.284Z,1020.65
2019-01-21T01:56:23.786Z,1020.67
2019-01-21T01:56:24.359Z,1020.68
2019-01-21T01:56:24.959Z,1020.66
2019-01-21T01:56:25.560Z,1020.62
2019-01-21T01:56:26.161Z,1020.67
2019-01-21T01:56:26.759Z,1020.65